createdAt,value
2023-11-15T00:04:18.998Z,5.83
2023-11-15T00:07:48.993Z,5.70
2023-11-15T00:14:06.997Z,5.17
2023-11-15T00:20:23.986Z,5.03
2023-11-15T00:23:19.026Z,5.07
2023-11-15T00:29:37.044Z,5.57
2023-11-15T00:32:49.474Z,4.83
2023-11-15T00:36:20.104Z,4.63
2023-11-15T00:39:49.971Z,4.90
2023-11-15T00:43:17.849Z,4.73
2023-11-15T00:49:29.164Z,5.00
2023-11-15T00:52:58.989Z,4.67
2023-11-15T00:56:29.068Z,5.40
2023-11-15T00:59:55.036Z,4.90
2023-11-15T01:03:25.131Z,4.60
2023-11-15T01:05:56.803Z,4.30
2023-11-15T01:09:11.034Z,4.60
2023-11-15T01:15:29.978Z,4.17
2023-11-15T01:19:00.032Z,4.17
2023-11-15T01:22:30.010Z,4.73
2023-11-15T01:26:00.067Z,4.57
2023-11-15T01:28:39.228Z,3.83
2023-11-15T01:31:15.086Z,4.13
2023-11-15T01:34:20.511Z,4.60
2023-11-15T01:37:32.053Z,4.03
2023-11-15T01:43:56.334Z,4.60
2023-11-15T01:46:57.178Z,4.37
2023-11-15T01:53:08.969Z,4.37
2023-11-15T01:59:20.595Z,4.07
2023-11-15T02:02:15.946Z,4.47
2023-11-15T02:05:46.078Z,5.03
2023-11-15T02:09:27.059Z,4.20
2023-11-15T02:16:56.096Z,3.87
2023-11-15T02:19:47.009Z,4.30
2023-11-15T02:23:37.184Z,3.80
2023-11-15T02:26:35.161Z,4.40
2023-11-15T02:30:06.283Z,4.40
2023-11-15T02:33:09.138Z,4.70
2023-11-15T02:36:39.135Z,5.10
2023-11-15T02:42:56.147Z,4.17
2023-11-15T02:46:26.216Z,4.37
2023-11-15T02:49:56.126Z,4.23
2023-11-15T02:53:26.174Z,4.00
2023-11-15T02:56:56.204Z,5.13
2023-11-15T03:03:15.381Z,4.80
2023-11-15T03:06:45.165Z,4.13
2023-11-15T03:10:15.149Z,4.53
2023-11-15T03:13:45.175Z,5.40
2023-11-15T03:17:15.060Z,5.00
2023-11-15T03:23:33.137Z,5.07
2023-11-15T03:29:50.174Z,5.10
2023-11-15T03:33:00.222Z,5.40
2023-11-15T03:36:10.165Z,4.77
2023-11-15T03:42:35.179Z,4.60
2023-11-15T03:48:52.157Z,4.80
2023-11-15T03:52:22.105Z,5.77
2023-11-15T03:58:40.179Z,5.60
2023-11-15T04:05:03.402Z,5.50
2023-11-15T04:08:18.639Z,4.73
2023-11-15T04:11:49.252Z,5.43
2023-11-15T04:15:19.225Z,6.37
2023-11-15T04:18:49.157Z,5.60
2023-11-15T04:22:19.150Z,5.53
2023-11-15T04:28:37.136Z,4.97
2023-11-15T04:31:19.251Z,5.90
2023-11-15T04:34:31.674Z,5.90
2023-11-15T04:38:02.284Z,5.57
2023-11-15T04:41:32.153Z,5.47
2023-11-15T04:45:02.263Z,6.33
2023-11-15T04:48:32.327Z,6.73
2023-11-15T04:52:02.204Z,5.40
2023-11-15T04:54:58.183Z,5.20
2023-11-15T04:58:28.212Z,4.70
2023-11-15T05:01:58.209Z,4.80
2023-11-15T05:05:28.231Z,4.83
2023-11-15T05:11:46.412Z,3.53
2023-11-15T05:18:09.493Z,3.70
2023-11-15T05:21:39.258Z,4.43
2023-11-15T05:24:12.114Z,4.47
2023-11-15T05:27:42.294Z,4.07
2023-11-15T05:30:49.198Z,4.03
2023-11-15T05:34:01.895Z,3.73
2023-11-15T05:37:32.277Z,3.73
2023-11-15T05:41:02.275Z,4.40
2023-11-15T05:44:33.229Z,4.07
2023-11-15T05:48:03.273Z,3.80
2023-11-15T05:50:34.482Z,3.47
2023-11-15T05:54:05.246Z,3.40
2023-11-15T05:57:35.301Z,3.17
2023-11-15T06:04:05.301Z,2.37
2023-11-15T06:11:16.270Z,1.67
2023-11-15T06:14:46.303Z,2.17
2023-11-15T06:18:16.320Z,1.70
2023-11-15T06:25:03.270Z,1.70
2023-11-15T06:28:33.236Z,1.87
2023-11-15T06:31:22.247Z,1.93
2023-11-15T06:34:10.821Z,2.07
2023-11-15T06:37:09.587Z,2.20
2023-11-15T06:40:20.638Z,2.30
2023-11-15T06:43:29.352Z,2.40
2023-11-15T06:57:01.200Z,2.00
2023-11-15T07:03:20.495Z,2.07
2023-11-15T07:06:16.383Z,2.17
2023-11-15T07:12:41.943Z,2.20
2023-11-15T07:16:12.699Z,2.63
2023-11-15T07:19:43.389Z,2.17
2023-11-15T07:23:13.352Z,2.70
2023-11-15T07:26:43.312Z,2.60
2023-11-15T07:30:13.395Z,2.47
2023-11-15T07:33:06.439Z,2.90
2023-11-15T07:39:43.029Z,2.63
2023-11-15T07:46:53.390Z,2.50
2023-11-15T07:50:13.299Z,2.80
2023-11-15T07:56:39.988Z,2.33
2023-11-15T08:02:56.778Z,2.30
2023-11-15T08:06:27.404Z,2.47
2023-11-15T08:13:13.406Z,2.17
2023-11-15T08:23:06.494Z,3.23
2023-11-15T08:30:23.368Z,3.33
2023-11-15T08:36:39.806Z,4.17
2023-11-15T08:39:39.284Z,4.13
2023-11-15T08:43:09.420Z,3.23
2023-11-15T08:46:39.455Z,3.00
2023-11-15T08:53:50.431Z,3.43
2023-11-15T08:57:20.426Z,3.20
2023-11-15T09:00:50.438Z,3.93
2023-11-15T09:04:20.478Z,4.17
2023-11-15T09:11:31.367Z,4.20
2023-11-15T09:15:13.902Z,4.23
2023-11-15T09:18:46.335Z,3.50
2023-11-15T09:21:18.134Z,9.87
2023-11-15T09:24:46.424Z,2.93
2023-11-15T09:31:30.790Z,2.87
2023-11-15T09:34:12.892Z,2.87
2023-11-15T09:37:13.696Z,2.43
2023-11-15T09:40:19.377Z,5.60
2023-11-15T09:43:49.460Z,2.10
2023-11-15T09:50:59.558Z,1.80
2023-11-15T09:53:33.941Z,1.80
2023-11-15T09:56:59.367Z,1.83
2023-11-15T10:14:37.440Z,1.10
2023-11-15T10:17:19.455Z,1.50
2023-11-15T10:23:33.052Z,1.03
2023-11-15T10:26:59.682Z,1.40
2023-11-15T10:33:39.877Z,1.30
2023-11-15T10:40:33.225Z,1.27
2023-11-15T10:44:02.489Z,1.30
2023-11-15T10:51:25.557Z,1.27
2023-11-15T10:58:30.531Z,1.23
2023-11-15T11:01:39.755Z,1.40
2023-11-15T11:05:10.450Z,1.20
2023-11-15T11:08:16.499Z,1.70
2023-11-15T11:15:27.425Z,1.50
2023-11-15T11:18:57.594Z,1.40
2023-11-15T11:22:27.481Z,1.30
2023-11-15T11:25:57.557Z,1.60
2023-11-15T11:29:27.665Z,1.60
2023-11-15T11:32:36.741Z,1.40
2023-11-15T11:36:06.522Z,1.30
2023-11-15T11:38:49.311Z,1.60
2023-11-15T11:42:19.556Z,1.67
2023-11-15T11:45:38.586Z,1.47
2023-11-15T11:49:02.504Z,1.70
2023-11-15T11:55:21.537Z,2.40
2023-11-15T11:58:51.625Z,2.30
2023-11-15T12:06:02.598Z,2.20
2023-11-15T12:12:33.592Z,2.70
2023-11-15T12:16:03.527Z,3.03
2023-11-15T12:19:30.822Z,3.20
2023-11-15T12:22:27.853Z,3.33
2023-11-15T12:25:57.764Z,3.93
2023-11-15T12:29:15.659Z,3.80
2023-11-15T12:35:27.400Z,3.20
2023-11-15T12:45:34.046Z,2.87
2023-11-15T12:49:03.625Z,3.20
2023-11-15T12:56:14.673Z,3.43
2023-11-15T12:59:44.592Z,4.00
2023-11-15T13:06:55.557Z,3.97
2023-11-15T13:10:08.769Z,3.80
2023-11-15T13:13:38.657Z,3.77
2023-11-15T13:16:35.956Z,3.93
2023-11-15T13:19:56.773Z,3.83
2023-11-15T13:26:07.567Z,3.17
2023-11-15T13:29:37.654Z,3.70
2023-11-15T13:32:08.466Z,3.00
2023-11-15T13:34:58.578Z,3.27
2023-11-15T13:38:13.426Z,3.43
2023-11-15T13:41:43.619Z,4.37
2023-11-15T13:45:01.574Z,4.30
2023-11-15T13:48:32.752Z,5.03
2023-11-15T13:51:19.855Z,4.30
2023-11-15T13:54:50.812Z,5.73
2023-11-15T14:02:20.682Z,3.37
2023-11-15T14:05:50.620Z,2.63
2023-11-15T14:08:55.908Z,4.07
2023-11-15T14:12:14.659Z,2.43
2023-11-15T14:19:31.241Z,2.10
2023-11-15T14:30:22.732Z,2.40
2023-11-15T14:33:53.729Z,2.40
2023-11-15T14:36:59.084Z,2.17
2023-11-15T14:40:29.598Z,2.50
2023-11-15T14:43:59.604Z,2.70
2023-11-15T14:46:34.531Z,3.20
2023-11-15T14:50:04.598Z,2.80
2023-11-15T14:53:34.682Z,3.30
2023-11-15T14:57:04.678Z,3.77
2023-11-15T15:00:34.641Z,3.57
2023-11-15T15:03:48.767Z,3.33
2023-11-15T15:10:25.991Z,3.87
2023-11-15T15:16:35.952Z,4.20
2023-11-15T15:20:06.600Z,4.10
2023-11-15T15:23:36.654Z,4.60
2023-11-15T15:27:06.717Z,4.50
2023-11-15T15:33:34.834Z,4.43
2023-11-15T15:36:05.087Z,4.37
2023-11-15T15:39:03.026Z,4.80
2023-11-15T15:46:00.455Z,4.40
2023-11-15T15:48:56.039Z,4.03
2023-11-15T15:56:07.712Z,4.90
2023-11-15T15:59:02.693Z,4.33
2023-11-15T16:06:02.910Z,4.40
2023-11-15T16:12:15.570Z,5.53
2023-11-15T16:18:33.751Z,4.60
2023-11-15T16:22:07.948Z,4.90
2023-11-15T16:28:24.761Z,4.97
2023-11-15T16:31:54.768Z,5.47
2023-11-15T16:35:08.761Z,5.10
2023-11-15T16:38:29.717Z,4.90
2023-11-15T16:41:59.745Z,6.30
2023-11-15T16:45:29.713Z,5.33
2023-11-15T16:48:09.811Z,6.27
2023-11-15T16:58:57.021Z,6.43
2023-11-15T17:05:09.375Z,6.80
2023-11-15T17:12:19.868Z,6.03
2023-11-15T17:15:33.833Z,6.97
2023-11-15T17:21:47.484Z,6.80
2023-11-15T17:28:58.746Z,8.57
2023-11-15T17:32:01.772Z,9.40
2023-11-15T17:35:07.553Z,9.50
2023-11-15T17:38:21.016Z,9.47
2023-11-15T17:40:57.791Z,9.67
2023-11-15T17:44:27.760Z,10.13
2023-11-15T17:50:44.780Z,7.70
2023-11-15T17:54:14.948Z,8.47
2023-11-15T17:57:34.623Z,7.87
2023-11-15T18:01:04.744Z,9.17
2023-11-15T18:03:43.857Z,5.87
2023-11-15T18:07:13.756Z,8.33
2023-11-15T18:10:43.830Z,7.40
2023-11-15T18:14:13.791Z,5.67
2023-11-15T18:17:43.860Z,8.40
2023-11-15T18:21:02.711Z,8.03
2023-11-15T18:24:33.003Z,7.80
2023-11-15T18:28:03.807Z,7.87
2023-11-15T18:34:24.795Z,7.30
2023-11-15T18:37:16.952Z,7.07
2023-11-15T18:40:47.762Z,7.73
2023-11-15T18:47:58.861Z,7.20
2023-11-15T18:51:48.123Z,6.97
2023-11-15T18:55:07.846Z,8.10
2023-11-15T18:58:38.825Z,6.50
2023-11-15T19:05:17.788Z,6.63
2023-11-15T19:13:05.857Z,7.87
2023-11-15T19:16:35.840Z,7.17
2023-11-15T19:19:16.784Z,7.40
2023-11-15T19:33:26.341Z,7.30
2023-11-15T19:36:10.845Z,6.73
2023-11-15T19:38:55.447Z,8.13
2023-11-15T19:45:09.555Z,7.90
2023-11-15T19:51:37.326Z,6.90
2023-11-15T19:58:49.193Z,7.17
2023-11-15T20:02:18.827Z,7.70
2023-11-15T20:08:32.730Z,8.03
2023-11-15T20:14:45.058Z,7.73
2023-11-15T20:18:15.191Z,9.10
2023-11-15T20:21:45.198Z,8.07
2023-11-15T20:25:16.064Z,8.77
2023-11-15T20:28:45.834Z,7.77
2023-11-15T20:32:34.866Z,8.97
2023-11-15T20:35:53.314Z,9.07
2023-11-15T20:39:01.128Z,8.97
2023-11-15T20:42:32.917Z,10.27
2023-11-15T20:45:39.882Z,9.57
2023-11-15T20:52:40.966Z,9.30
2023-11-15T20:56:10.990Z,9.23
2023-11-15T20:59:09.001Z,7.50
2023-11-15T21:03:00.178Z,8.40
2023-11-15T21:10:33.819Z,7.40
2023-11-15T21:14:03.984Z,6.87
2023-11-15T21:17:52.819Z,8.50
2023-11-15T21:20:44.182Z,8.17
2023-11-15T21:24:29.873Z,7.67
2023-11-15T21:27:59.937Z,8.30
2023-11-15T21:35:06.251Z,7.23
2023-11-15T21:41:19.171Z,7.97
2023-11-15T21:43:55.848Z,6.87
2023-11-15T22:01:15.860Z,7.67
2023-11-15T22:04:45.936Z,8.07
2023-11-15T22:07:58.312Z,6.97
2023-11-15T22:11:28.868Z,5.97
2023-11-15T22:14:42.021Z,6.10
2023-11-15T22:18:11.932Z,6.37
2023-11-15T22:24:29.937Z,5.33
2023-11-15T22:27:59.859Z,6.60
2023-11-15T22:31:03.973Z,5.27
2023-11-15T22:34:16.132Z,5.70
2023-11-15T22:40:28.361Z,4.10
2023-11-15T22:50:19.826Z,2.43
2023-11-15T22:53:31.919Z,2.80
2023-11-15T22:57:01.932Z,2.60
2023-11-15T23:03:51.049Z,2.70
2023-11-15T23:06:39.634Z,2.93
2023-11-15T23:09:48.803Z,2.80
2023-11-15T23:12:51.725Z,2.97
2023-11-15T23:19:09.940Z,3.20
2023-11-15T23:22:39.923Z,3.30
2023-11-15T23:28:56.887Z,3.03
2023-11-15T23:32:26.914Z,2.97
2023-11-15T23:38:51.945Z,3.20
2023-11-15T23:42:05.605Z,3.30
2023-11-15T23:45:16.390Z,2.40
2023-11-15T23:51:32.955Z,2.17
2023-11-15T23:55:02.940Z,1.90
